Aurora — WDE6368 — position and weather

sailwx.info

Track history (hours):
 
Tides and Currents Weather Stations Pressure Air Temp Water Temp Dewpoint Dewpoint Depression Visibility Wind Speed Wind Dir Waves Ship Positions

Aurora

Owner: Boston Harbor Cruises, Boston, MA. More information available from US FCC via Universal Licensing System and Coast Guard Vessel Documentation Center.

Last reported at 2018-Jan-20 16:52 UTC. Time now 2018-Jan-20 17:20 UTC.
Position N 42°17' W 070°57'.

Length 37 m.

Type: High speed craft. MMSI: 367379320.

Date/timePositionNaut miles runAvg speedWind from/ knotsBaromVisibWave heightAir tempDewpointWater temp
2018-Jan-20 16:52N 42°17' W 070°57'3 9.1
2018-Jan-20 16:30N 42°20' W 070°60'3 5.9
2018-Jan-20 16:00N 42°22' W 071°03'0 0.0
2018-Jan-20 15:30N 42°22' W 071°03'0 0.0
2018-Jan-20 14:59N 42°22' W 071°03'0 0.2
2018-Jan-20 14:30N 42°22' W 071°03'0 0.2
2018-Jan-20 14:00N 42°22' W 071°03'1 1.1
2018-Jan-20 13:30N 42°21' W 071°02'813.6
2018-Jan-20 12:55N 42°16' W 070°55'0 0.0
2018-Jan-20 01:56N 42°16' W 070°55'818.6
2018-Jan-20 01:30N 42°21' W 071°03'510.3
2018-Jan-20 01:00N 42°18' W 070°58'3 5.5
2018-Jan-20 00:28N 42°16' W 070°55'817.5
2018-Jan-20 00:00N 42°21' W 071°03'4 6.5
2018-Jan-19 23:26N 42°19' W 070°59'4 6.0
2018-Jan-19 22:45N 42°16' W 070°56'622.5
2018-Jan-19 22:30N 42°20' W 071°00'2 3.6
2018-Jan-19 21:59N 42°21' W 071°03'610.7
2018-Jan-19 21:28N 42°17' W 070°57'0 0.0
2018-Jan-19 15:39N 42°17' W 070°57'525.3
2018-Jan-19 15:27N 42°21' W 071°02'0 1.0
2018-Jan-19 15:00N 42°21' W 071°02'811.8
2018-Jan-19 14:19N 42°15' W 070°55'0 0.9
2018-Jan-19 13:56N 42°16' W 070°55'818.4
2018-Jan-19 13:30N 42°21' W 071°03'4 9.0
2018-Jan-19 13:00N 42°18' W 070°59'3 4.6
2018-Jan-19 12:16N 42°16' W 070°55'622.3
2018-Jan-19 12:00N 42°20' W 071°01'2 3.7
2018-Jan-19 11:30N 42°21' W 071°03'8 0.8
2018-Jan-19 01:56N 42°16' W 070°55'817.9
2018-Jan-19 01:30N 42°21' W 071°03'611.6
2018-Jan-19 00:59N 42°17' W 070°57'2 4.0
2018-Jan-19 00:29N 42°16' W 070°55'813.3
2018-Jan-18 23:53N 42°21' W 071°03'4 9.1
2018-Jan-18 23:28N 42°19' W 070°59'4 7.7
2018-Jan-18 22:53N 42°15' W 070°55'718.7
2018-Jan-18 22:30N 42°21' W 071°01'1 2.3
2018-Jan-18 22:00N 42°22' W 071°03'1 2.5
2018-Jan-18 21:30N 42°23' W 071°03'0 0.0
2018-Jan-18 21:00N 42°23' W 071°03'0 0.0
2018-Jan-18 20:29N 42°23' W 071°03'0 0.0
2018-Jan-18 20:00N 42°23' W 071°03'0 0.0
2018-Jan-18 19:30N 42°23' W 071°03'0 0.0
2018-Jan-18 19:00N 42°23' W 071°03'0 0.0
2018-Jan-18 18:28N 42°23' W 071°03'0 0.0
2018-Jan-18 17:41N 42°23' W 071°03'0 0.1
2018-Jan-18 17:26N 42°23' W 071°03'1 3.1
2018-Jan-18 17:00N 42°22' W 071°02'0 0.8
2018-Jan-18 16:30N 42°21' W 071°02'8 7.5
2018-Jan-18 15:26N 42°16' W 070°55'818.9
2018-Jan-18 15:00N 42°21' W 071°03'610.6
2018-Jan-18 14:27N 42°17' W 070°57'2 2.3
2018-Jan-18 13:46N 42°18' W 070°59'4 9.3
2018-Jan-18 13:18N 42°21' W 071°03'618.5
2018-Jan-18 12:59N 42°17' W 070°57'2 2.6
2018-Jan-18 12:16N 42°16' W 070°55'621.4
2018-Jan-18 12:00N 42°20' W 071°00'2 4.3
2018-Jan-18 11:29N 42°21' W 071°03'8 0.8
2018-Jan-18 01:53N 42°16' W 070°56'811.6
2018-Jan-18 01:13N 42°21' W 071°03'312.2
2018-Jan-18 01:00N 42°20' W 071°00'3 2.0
2018-Jan-17 23:43N 42°21' W 071°03'  
Track history (hours):
 
Tides and Currents Weather Stations Pressure Air Temp Water Temp Dewpoint Dewpoint Depression Visibility Wind Speed Wind Dir Waves Ship Positions

Aurora

Owner: Boston Harbor Cruises, Boston, MA. More information available from US FCC via Universal Licensing System and Coast Guard Vessel Documentation Center.

Last reported at 2018-Jan-20 16:52 UTC. Time now 2018-Jan-20 17:20 UTC.
Position N 42°17' W 070°57'.

Length 37 m.

Type: High speed craft. MMSI: 367379320.

Date/timePositionNaut miles runAvg speedWind from/ knotsBaromVisibWave heightAir tempDewpointWater temp
2018-Jan-20 16:52N 42°17' W 070°57'3 9.1
2018-Jan-20 16:30N 42°20' W 070°60'3 5.9
2018-Jan-20 16:00N 42°22' W 071°03'0 0.0
2018-Jan-20 15:30N 42°22' W 071°03'0 0.0
2018-Jan-20 14:59N 42°22' W 071°03'0 0.2
2018-Jan-20 14:30N 42°22' W 071°03'0 0.2
2018-Jan-20 14:00N 42°22' W 071°03'1 1.1
2018-Jan-20 13:30N 42°21' W 071°02'813.6
2018-Jan-20 12:55N 42°16' W 070°55'0 0.0
2018-Jan-20 01:56N 42°16' W 070°55'818.6
2018-Jan-20 01:30N 42°21' W 071°03'510.3
2018-Jan-20 01:00N 42°18' W 070°58'3 5.5
2018-Jan-20 00:28N 42°16' W 070°55'817.5
2018-Jan-20 00:00N 42°21' W 071°03'4 6.5
2018-Jan-19 23:26N 42°19' W 070°59'4 6.0
2018-Jan-19 22:45N 42°16' W 070°56'622.5
2018-Jan-19 22:30N 42°20' W 071°00'2 3.6
2018-Jan-19 21:59N 42°21' W 071°03'610.7
2018-Jan-19 21:28N 42°17' W 070°57'0 0.0
2018-Jan-19 15:39N 42°17' W 070°57'525.3
2018-Jan-19 15:27N 42°21' W 071°02'0 1.0
2018-Jan-19 15:00N 42°21' W 071°02'811.8
2018-Jan-19 14:19N 42°15' W 070°55'0 0.9
2018-Jan-19 13:56N 42°16' W 070°55'818.4
2018-Jan-19 13:30N 42°21' W 071°03'4 9.0
2018-Jan-19 13:00N 42°18' W 070°59'3 4.6
2018-Jan-19 12:16N 42°16' W 070°55'622.3
2018-Jan-19 12:00N 42°20' W 071°01'2 3.7
2018-Jan-19 11:30N 42°21' W 071°03'8 0.8
2018-Jan-19 01:56N 42°16' W 070°55'817.9
2018-Jan-19 01:30N 42°21' W 071°03'611.6
2018-Jan-19 00:59N 42°17' W 070°57'2 4.0
2018-Jan-19 00:29N 42°16' W 070°55'813.3
2018-Jan-18 23:53N 42°21' W 071°03'4 9.1
2018-Jan-18 23:28N 42°19' W 070°59'4 7.7
2018-Jan-18 22:53N 42°15' W 070°55'718.7
2018-Jan-18 22:30N 42°21' W 071°01'1 2.3
2018-Jan-18 22:00N 42°22' W 071°03'1 2.5
2018-Jan-18 21:30N 42°23' W 071°03'0 0.0
2018-Jan-18 21:00N 42°23' W 071°03'0 0.0
2018-Jan-18 20:29N 42°23' W 071°03'0 0.0
2018-Jan-18 20:00N 42°23' W 071°03'0 0.0
2018-Jan-18 19:30N 42°23' W 071°03'0 0.0
2018-Jan-18 19:00N 42°23' W 071°03'0 0.0
2018-Jan-18 18:28N 42°23' W 071°03'0 0.0
2018-Jan-18 17:41N 42°23' W 071°03'0 0.1
2018-Jan-18 17:26N 42°23' W 071°03'1 3.1
2018-Jan-18 17:00N 42°22' W 071°02'0 0.8
2018-Jan-18 16:30N 42°21' W 071°02'8 7.5
2018-Jan-18 15:26N 42°16' W 070°55'818.9
2018-Jan-18 15:00N 42°21' W 071°03'610.6
2018-Jan-18 14:27N 42°17' W 070°57'2 2.3
2018-Jan-18 13:46N 42°18' W 070°59'4 9.3
2018-Jan-18 13:18N 42°21' W 071°03'618.5
2018-Jan-18 12:59N 42°17' W 070°57'2 2.6
2018-Jan-18 12:16N 42°16' W 070°55'621.4
2018-Jan-18 12:00N 42°20' W 071°00'2 4.3
2018-Jan-18 11:29N 42°21' W 071°03'8 0.8
2018-Jan-18 01:53N 42°16' W 070°56'811.6
2018-Jan-18 01:13N 42°21' W 071°03'312.2
2018-Jan-18 01:00N 42°20' W 071°00'3 2.0
2018-Jan-17 23:43N 42°21' W 071°03'  

Dump ship's entire track history